Time;durP1;ratioP1;P1;durP2;ratioP2;P2;SDS_P1;SDS_P2;PMS_P1;PMS_P2;Temp;Humidity;BMP_temperature;BMP_pressure;BME280_temperature;BME280_humidity;BME280_pressure;Samples;Min_cycle;Max_cycle;Signal;HPM_P1;HPM_P2
2023/05/04 00:01:29;;;;;;;9.07;5.72;;;;;;;19.16;40.67;102506.00;5021510;28;20163;-34
2023/05/04 00:03:55;;;;;;;9.32;5.78;;;;;;;19.15;40.76;102503.47;5024941;28;20095;-35
2023/05/04 00:06:22;;;;;;;8.32;5.55;;;;;;;19.15;41.10;102503.47;5025220;28;20049;-36
2023/05/04 00:08:49;;;;;;;8.23;5.55;;;;;;;19.14;41.01;102501.75;5021716;28;20053;-35
2023/05/04 00:11:16;;;;;;;8.45;5.25;;;;;;;19.12;40.92;102498.31;5025255;28;20326;-35
2023/05/04 00:13:42;;;;;;;9.52;5.38;;;;;;;19.10;40.90;102493.06;5024598;28;20049;-37
2023/05/04 00:16:09;;;;;;;8.35;5.60;;;;;;;19.08;40.74;102489.63;5024772;28;20052;-35
2023/05/04 00:18:37;;;;;;;11.00;5.28;;;;;;;19.07;40.93;102487.06;5023351;28;20049;-37
2023/05/04 00:21:03;;;;;;;9.40;5.38;;;;;;;19.05;41.33;102487.19;5040928;28;21463;-34
2023/05/04 00:23:30;;;;;;;8.23;5.13;;;;;;;19.05;40.68;102476.44;5020845;28;20052;-35
2023/05/04 00:26:00;;;;;;;9.90;4.90;;;;;;;19.03;41.23;102477.53;5025408;28;20064;-34
2023/05/04 00:28:29;;;;;;;8.13;4.75;;;;;;;19.03;41.02;102474.84;5022984;28;20361;-34
2023/05/04 00:30:55;;;;;;;8.90;4.97;;;;;;;19.01;40.89;102476.78;5026299;28;20050;-36
2023/05/04 00:33:22;;;;;;;9.32;5.15;;;;;;;18.99;40.89;102479.63;5026797;28;20084;-35
2023/05/04 00:35:49;;;;;;;8.15;5.07;;;;;;;18.98;41.06;102472.53;5023130;28;20056;-35
2023/05/04 00:38:17;;;;;;;9.13;4.57;;;;;;;18.97;41.03;102478.84;5029080;28;20049;-34
2023/05/04 00:40:44;;;;;;;8.82;5.03;;;;;;;18.95;40.74;102468.25;5026262;28;20061;-35
2023/05/04 00:43:11;;;;;;;8.00;4.78;;;;;;;18.93;40.88;102467.50;5027332;28;20055;-35
2023/05/04 00:45:38;;;;;;;6.80;4.38;;;;;;;18.93;40.85;102464.81;5024983;28;20055;-35
2023/05/04 00:48:06;;;;;;;8.07;5.07;;;;;;;18.90;41.55;102457.00;5027812;28;20076;-37
2023/05/04 00:50:33;;;;;;;8.20;4.65;;;;;;;18.90;41.39;102459.69;5025501;28;20420;-36
2023/05/04 00:53:06;;;;;;;7.32;4.25;;;;;;;18.89;40.77;102463.34;5024274;28;20617;-35
2023/05/04 00:55:36;;;;;;;7.47;4.75;;;;;;;18.90;41.25;102464.22;5024889;28;20431;-35
2023/05/04 00:58:03;;;;;;;7.45;4.40;;;;;;;18.89;41.24;102457.09;5022535;28;20481;-35
2023/05/04 01:00:30;;;;;;;7.07;3.47;;;;;;;18.88;41.56;102458.09;5022186;28;20084;-35
2023/05/04 01:02:57;;;;;;;7.00;4.60;;;;;;;18.86;41.38;102466.28;5024564;28;20041;-35
2023/05/04 01:05:30;;;;;;;6.40;3.88;;;;;;;18.85;41.42;102456.50;5023111;28;20448;-35
2023/05/04 01:08:14;;;;;;;7.78;4.70;;;;;;;18.83;41.55;102458.47;5024317;28;20060;-35
2023/05/04 01:10:51;;;;;;;6.05;4.10;;;;;;;18.83;41.73;102454.91;5022168;28;20042;-34
2023/05/04 01:13:20;;;;;;;8.23;4.72;;;;;;;18.83;41.29;102450.41;5023054;28;20046;-35
2023/05/04 01:15:48;;;;;;;8.52;4.28;;;;;;;18.82;41.50;102445.16;5026382;28;20085;-35
2023/05/04 01:18:15;;;;;;;7.88;4.35;;;;;;;18.81;41.54;102440.75;5021671;28;20049;-35
2023/05/04 01:20:42;;;;;;;6.30;4.07;;;;;;;18.80;41.57;102439.03;5025621;28;20380;-35
2023/05/04 01:23:09;;;;;;;5.95;3.85;;;;;;;18.79;41.68;102440.00;5024573;28;20344;-34
2023/05/04 01:25:52;;;;;;;6.47;4.07;;;;;;;18.77;41.45;102439.25;5019599;28;20353;-35
2023/05/04 01:28:32;;;;;;;6.35;4.00;;;;;;;18.77;41.54;102436.56;5021420;28;20042;-35
2023/05/04 01:31:01;;;;;;;6.00;3.90;;;;;;;18.76;41.42;102434.88;5025108;28;20056;-35
2023/05/04 01:33:30;;;;;;;5.90;3.80;;;;;;;18.75;41.83;102431.34;5024769;28;20045;-35
2023/05/04 01:35:58;;;;;;;6.03;3.33;;;;;;;18.73;41.55;102428.78;5020226;28;20428;-35
2023/05/04 01:38:24;;;;;;;5.60;3.40;;;;;;;18.73;41.41;102422.53;5027339;28;20156;-35
2023/05/04 01:40:51;;;;;;;5.95;3.40;;;;;;;18.72;41.57;102428.88;5020666;28;20085;-34
2023/05/04 01:43:17;;;;;;;5.43;3.42;;;;;;;18.71;41.69;102430.72;5025652;28;20107;-34
2023/05/04 01:45:44;;;;;;;6.32;3.50;;;;;;;18.69;41.69;102424.59;5019197;28;20382;-35
2023/05/04 01:48:10;;;;;;;5.80;3.22;;;;;;;18.68;41.83;102422.84;5022899;28;20050;-35
2023/05/04 01:50:37;;;;;;;5.72;3.38;;;;;;;18.68;41.67;102417.50;5024607;28;20049;-35
2023/05/04 01:53:03;;;;;;;6.95;3.90;;;;;;;18.67;42.00;102423.00;5020970;28;20072;-35
2023/05/04 01:55:30;;;;;;;7.18;3.65;;;;;;;18.65;41.99;102417.75;5020326;28;20055;-34
2023/05/04 01:57:56;;;;;;;4.57;3.38;;;;;;;18.65;41.40;102416.88;5025005;28;21574;-35
2023/05/04 02:00:23;;;;;;;4.57;3.38;;;;;;;18.64;41.70;102421.38;5021886;28;20045;-35
2023/05/04 02:02:50;;;;;;;6.22;3.55;;;;;;;18.64;42.04;102423.22;5021734;28;20059;-36
2023/05/04 02:05:16;;;;;;;4.68;3.17;;;;;;;18.62;41.69;102415.28;5027057;28;20049;-35
2023/05/04 02:07:43;;;;;;;4.43;3.05;;;;;;;18.61;41.70;102416.25;5025977;28;20041;-35
2023/05/04 02:10:10;;;;;;;5.57;3.58;;;;;;;18.59;41.82;102418.22;5023881;28;20056;-35
2023/05/04 02:12:36;;;;;;;4.53;2.88;;;;;;;18.58;41.78;102408.44;5024381;28;20049;-36
2023/05/04 02:15:03;;;;;;;4.90;3.13;;;;;;;18.58;41.81;102405.78;5021364;28;20333;-35
2023/05/04 02:17:30;;;;;;;5.35;2.92;;;;;;;18.57;41.88;102403.19;5020629;28;20044;-35
2023/05/04 02:19:57;;;;;;;4.53;3.10;;;;;;;18.56;42.02;102405.00;5020771;28;20049;-36
2023/05/04 02:22:23;;;;;;;5.57;3.15;;;;;;;18.55;42.07;102402.47;5024215;28;20349;-35
2023/05/04 02:24:50;;;;;;;6.55;3.55;;;;;;;18.55;41.77;102402.47;5023397;28;20095;-36
2023/05/04 02:27:16;;;;;;;6.47;3.10;;;;;;;18.53;42.16;102396.34;5024961;28;20136;-35
2023/05/04 02:29:43;;;;;;;4.93;3.20;;;;;;;18.52;42.28;102392.81;5027388;28;20049;-35
2023/05/04 02:32:09;;;;;;;5.72;3.50;;;;;;;18.51;41.92;102388.41;5027898;28;20064;-36
2023/05/04 02:34:36;;;;;;;5.13;2.88;;;;;;;18.49;42.31;102388.53;5024456;28;20176;-35
2023/05/04 02:37:03;;;;;;;4.47;3.00;;;;;;;18.48;42.04;102389.50;5022952;28;20045;-36
2023/05/04 02:39:32;;;;;;;4.65;3.13;;;;;;;18.47;41.97;102381.56;5026309;28;20049;-35
2023/05/04 02:41:59;;;;;;;4.18;2.83;;;;;;;18.46;42.16;102374.50;5022529;28;20050;-35
2023/05/04 02:44:27;;;;;;;6.05;2.90;;;;;;;18.46;41.75;102386.09;5023699;28;20401;-36
2023/05/04 02:46:54;;;;;;;5.68;2.80;;;;;;;18.44;41.96;102381.81;5023305;28;20057;-35
2023/05/04 02:49:20;;;;;;;4.57;2.88;;;;;;;18.43;41.80;102380.94;5021884;28;20472;-36
2023/05/04 02:51:47;;;;;;;5.18;3.17;;;;;;;18.42;42.31;102378.41;5023597;28;20115;-37
2023/05/04 02:54:13;;;;;;;4.00;2.63;;;;;;;18.41;42.34;102372.19;5022919;28;20053;-36
2023/05/04 02:56:40;;;;;;;4.10;2.60;;;;;;;18.41;42.03;102374.88;5020361;28;20124;-35
2023/05/04 02:59:06;;;;;;;4.95;2.67;;;;;;;18.40;41.97;102370.44;5021533;28;20054;-36
2023/05/04 03:01:33;;;;;;;3.65;2.65;;;;;;;18.39;42.53;102370.56;5019764;28;20656;-36
2023/05/04 03:04:00;;;;;;;4.25;2.55;;;;;;;18.39;42.45;102375.94;5019382;28;20046;-35
2023/05/04 03:06:27;;;;;;;5.30;2.92;;;;;;;18.37;42.29;102370.69;5022714;28;20052;-35
2023/05/04 03:08:53;;;;;;;3.45;2.35;;;;;;;18.37;42.41;102370.69;5020446;28;20048;-34
2023/05/04 03:11:20;;;;;;;4.35;2.80;;;;;;;18.36;42.01;102371.66;5020546;28;20053;-35
2023/05/04 03:13:47;;;;;;;3.95;2.40;;;;;;;18.35;42.46;102369.09;5023150;28;20136;-35
2023/05/04 03:16:13;;;;;;;3.70;2.30;;;;;;;18.34;42.50;102373.63;5018028;28;20132;-35
2023/05/04 03:18:40;;;;;;;5.20;2.72;;;;;;;18.34;42.47;102364.72;5019183;28;20049;-35
2023/05/04 03:21:06;;;;;;;4.35;2.50;;;;;;;18.33;42.34;102366.53;5021608;28;20057;-35
2023/05/04 03:23:33;;;;;;;4.88;3.03;;;;;;;18.33;42.14;102368.34;5021563;28;20083;-35
2023/05/04 03:26:00;;;;;;;3.58;2.50;;;;;;;18.33;42.16;102365.66;5020595;28;20061;-35
2023/05/04 03:28:26;;;;;;;4.05;2.50;;;;;;;18.31;42.20;102359.56;5027721;28;20053;-35
2023/05/04 03:30:53;;;;;;;3.90;2.60;;;;;;;18.31;42.15;102359.56;5027389;28;20433;-35
2023/05/04 03:33:19;;;;;;;5.00;2.05;;;;;;;18.30;42.68;102364.09;5023958;28;20081;-35
2023/05/04 03:35:46;;;;;;;4.72;2.65;;;;;;;18.28;42.53;102360.66;5027784;28;20087;-37
2023/05/04 03:38:12;;;;;;;3.08;2.38;;;;;;;18.29;42.45;102361.50;5023111;28;20211;-35
2023/05/04 03:40:39;;;;;;;4.38;2.35;;;;;;;18.27;42.24;102360.78;5025141;28;20567;-37
2023/05/04 03:43:06;;;;;;;2.83;2.45;;;;;;;18.26;42.53;102349.19;5024918;28;20459;-35
2023/05/04 03:45:33;;;;;;;3.35;2.45;;;;;;;18.24;42.42;102343.94;5024936;28;20501;-36
2023/05/04 03:47:59;;;;;;;4.95;2.58;;;;;;;18.25;42.10;102347.47;5025505;28;20041;-35
2023/05/04 03:50:26;;;;;;;3.70;2.17;;;;;;;18.23;42.51;102350.28;5023757;28;20156;-35
2023/05/04 03:52:53;;;;;;;3.58;2.25;;;;;;;18.22;42.37;102348.56;5022951;28;20057;-35
2023/05/04 03:55:19;;;;;;;2.88;1.92;;;;;;;18.22;42.40;102345.03;5019424;28;20135;-35
2023/05/04 03:57:46;;;;;;;3.78;2.20;;;;;;;18.22;42.89;102353.94;5021216;28;20593;-37
2023/05/04 04:00:13;;;;;;;3.15;2.30;;;;;;;18.21;42.73;102354.03;5019060;28;20143;-36
2023/05/04 04:02:40;;;;;;;3.92;2.33;;;;;;;18.21;42.67;102354.03;5017866;28;20045;-35
2023/05/04 04:05:07;;;;;;;4.00;2.40;;;;;;;18.19;42.34;102348.81;5019523;28;20143;-35
2023/05/04 04:07:33;;;;;;;3.65;2.40;;;;;;;18.19;42.80;102345.28;5023124;28;20065;-35
2023/05/04 04:10:00;;;;;;;3.38;2.47;;;;;;;18.18;42.79;102338.19;5017265;28;20051;-35
2023/05/04 04:12:27;;;;;;;3.65;2.40;;;;;;;18.16;42.50;102340.97;5022725;28;20045;-35
2023/05/04 04:14:53;;;;;;;3.63;2.55;;;;;;;18.14;42.67;102340.25;5022161;28;20076;-35
2023/05/04 04:17:20;;;;;;;3.67;2.22;;;;;;;18.14;42.72;102336.72;5025155;28;20315;-36
2023/05/04 04:19:47;;;;;;;3.35;2.05;;;;;;;18.13;42.76;102343.94;5023873;28;20053;-35
2023/05/04 04:22:13;;;;;;;3.72;2.35;;;;;;;18.13;42.28;102341.25;5026653;28;20041;-35
2023/05/04 04:24:40;;;;;;;3.05;1.83;;;;;;;18.11;42.89;102332.44;5024096;28;20041;-36
2023/05/04 04:27:06;;;;;;;3.58;2.17;;;;;;;18.12;42.65;102336.81;5025611;28;21126;-36
2023/05/04 04:29:34;;;;;;;2.92;2.00;;;;;;;18.15;42.73;102336.59;5022884;28;20349;-36
2023/05/04 04:32:02;;;;;;;3.45;1.73;;;;;;;18.23;42.89;102328.81;5026310;28;20080;-36
2023/05/04 04:34:28;;;;;;;4.38;2.33;;;;;;;18.35;42.63;102328.84;5022509;28;20056;-36
2023/05/04 04:36:55;;;;;;;3.28;2.20;;;;;;;18.46;42.35;102324.34;5026779;28;20128;-35
2023/05/04 04:39:22;;;;;;;4.32;2.05;;;;;;;18.59;41.94;102326.06;5027184;28;20089;-37
2023/05/04 04:41:49;;;;;;;3.90;2.38;;;;;;;18.72;42.03;102324.97;5023968;28;20050;-36
2023/05/04 04:44:15;;;;;;;3.78;2.55;;;;;;;18.83;42.11;102324.13;5023566;28;20061;-35
2023/05/04 04:46:44;;;;;;;4.55;2.75;;;;;;;18.93;41.74;102326.94;5024089;28;20037;-35
2023/05/04 04:49:11;;;;;;;4.32;2.67;;;;;;;18.99;41.59;102326.44;5029651;28;20251;-36
2023/05/04 04:51:40;;;;;;;3.95;2.65;;;;;;;19.02;41.34;102318.16;5018458;28;20056;-36
2023/05/04 04:54:07;;;;;;;2.65;2.20;;;;;;;19.05;41.39;102308.97;5025405;28;20081;-38
2023/05/04 04:56:33;;;;;;;6.22;2.72;;;;;;;19.04;41.67;102309.94;5028432;28;20131;-35
2023/05/04 04:59:00;;;;;;;4.65;3.00;;;;;;;19.03;41.77;102305.56;5025040;28;20057;-35
2023/05/04 05:01:26;;;;;;;5.22;2.85;;;;;;;19.02;42.01;102312.78;5022185;28;20693;-35
2023/05/04 05:03:53;;;;;;;3.75;2.70;;;;;;;19.01;41.48;102305.66;5025979;28;20446;-36
2023/05/04 05:06:20;;;;;;;5.25;2.75;;;;;;;19.01;41.51;102308.34;5025832;28;20060;-35
2023/05/04 05:08:46;;;;;;;5.32;2.80;;;;;;;18.98;41.64;102304.09;5023999;28;20085;-35
2023/05/04 05:11:13;;;;;;;3.90;2.85;;;;;;;18.94;41.02;102307.16;5022902;28;20054;-35
2023/05/04 05:13:39;;;;;;;4.72;2.80;;;;;;;18.87;42.10;102317.53;5024105;28;20099;-36
2023/05/04 05:16:06;;;;;;;6.43;2.85;;;;;;;18.80;41.62;102318.16;5029458;28;20140;-35
2023/05/04 05:18:33;;;;;;;4.30;2.50;;;;;;;18.72;41.99;102306.19;5025435;28;20054;-36
2023/05/04 05:20:59;;;;;;;6.03;3.00;;;;;;;18.65;42.10;102313.00;5025659;28;20045;-35
2023/05/04 05:23:26;;;;;;;4.78;2.70;;;;;;;18.58;42.63;102317.16;5028303;28;20128;-35
2023/05/04 05:25:54;;;;;;;7.05;3.10;;;;;;;18.53;42.76;102321.16;5022968;28;20534;-35
2023/05/04 05:28:21;;;;;;;7.68;3.00;;;;;;;18.48;42.80;102317.00;5024308;28;20049;-36
2023/05/04 05:30:50;;;;;;;6.43;3.00;;;;;;;18.44;42.78;102323.59;5021347;28;20072;-36
2023/05/04 05:33:17;;;;;;;4.57;2.80;;;;;;;18.42;42.37;102319.34;5022659;28;20128;-35
2023/05/04 05:35:44;;;;;;;4.30;3.08;;;;;;;18.39;42.17;102315.06;5023686;28;20326;-35
2023/05/04 05:38:11;;;;;;;5.28;2.95;;;;;;;18.39;42.35;102308.84;5023265;28;20053;-35
2023/05/04 05:40:37;;;;;;;4.80;2.70;;;;;;;18.37;42.51;102310.75;5022595;28;20041;-35
2023/05/04 05:43:06;;;;;;;4.38;2.35;;;;;;;18.35;42.96;102310.03;5022931;28;20059;-35
2023/05/04 05:45:33;;;;;;;5.97;3.10;;;;;;;18.35;42.64;102302.00;5024165;28;20450;-35
2023/05/04 05:47:59;;;;;;;4.50;2.72;;;;;;;18.35;42.94;102302.00;5024383;28;20050;-35
2023/05/04 05:50:26;;;;;;;4.85;2.90;;;;;;;18.35;42.80;102299.31;5020017;28;20073;-36
2023/05/04 05:52:53;;;;;;;6.57;3.58;;;;;;;18.39;43.05;102303.47;5020896;28;20056;-36
2023/05/04 05:55:19;;;;;;;4.18;2.88;;;;;;;18.43;42.63;102302.25;5020320;28;20059;-36
2023/05/04 05:57:46;;;;;;;5.60;3.35;;;;;;;18.45;42.57;102293.09;5020858;28;20311;-35
2023/05/04 06:00:13;;;;;;;6.20;3.22;;;;;;;18.48;42.83;102295.53;5018784;28;20059;-36
2023/05/04 06:02:39;;;;;;;5.20;3.13;;;;;;;18.52;42.48;102293.47;5020412;28;20146;-35
2023/05/04 06:05:06;;;;;;;4.45;3.10;;;;;;;18.54;42.45;102285.31;5023653;28;20061;-35
2023/05/04 06:07:33;;;;;;;6.28;3.20;;;;;;;18.56;42.31;102291.38;5021887;28;20053;-36
2023/05/04 06:10:00;;;;;;;5.57;3.40;;;;;;;18.56;42.52;102294.91;5022114;28;20049;-36
2023/05/04 06:12:27;;;;;;;6.25;3.13;;;;;;;18.59;42.41;102293.84;5019063;28;20054;-36
2023/05/04 06:14:53;;;;;;;6.38;3.20;;;;;;;18.59;41.93;102294.69;5026212;28;20171;-36
2023/05/04 06:17:20;;;;;;;8.25;3.47;;;;;;;18.61;42.20;102292.72;5024135;28;20337;-36
2023/05/04 06:19:48;;;;;;;5.78;3.25;;;;;;;18.64;41.97;102291.63;5025108;28;20057;-36
2023/05/04 06:22:16;;;;;;;4.38;2.97;;;;;;;18.63;42.34;102285.41;5023639;28;20371;-36
2023/05/04 06:24:43;;;;;;;6.20;3.53;;;;;;;18.65;41.95;102280.78;5024839;28;20136;-39
2023/05/04 06:27:09;;;;;;;7.60;3.55;;;;;;;18.67;42.07;102275.28;5025707;28;20057;-36
2023/05/04 06:29:38;;;;;;;8.98;3.85;;;;;;;18.68;42.12;102280.50;5022259;28;20174;-35
2023/05/04 06:32:05;;;;;;;9.43;4.18;;;;;;;18.69;42.45;102271.50;5024293;28;20166;-36
2023/05/04 06:34:32;;;;;;;5.47;3.35;;;;;;;18.71;42.47;102274.09;5020991;28;20064;-36
2023/05/04 06:36:59;;;;;;;5.63;3.30;;;;;;;18.71;41.97;102274.94;5021452;28;20404;-36
2023/05/04 06:39:25;;;;;;;5.65;3.42;;;;;;;18.73;42.22;102274.81;5021934;28;20204;-37
2023/05/04 06:41:53;;;;;;;7.10;3.17;;;;;;;18.73;41.75;102272.13;5020817;28;20057;-36
2023/05/04 06:44:21;;;;;;;5.72;3.10;;;;;;;18.74;41.97;102265.78;5020514;28;20053;-36
2023/05/04 06:46:47;;;;;;;6.20;2.75;;;;;;;18.76;41.97;102268.34;5032631;28;20053;-36
2023/05/04 06:49:16;;;;;;;5.70;3.17;;;;;;;18.76;42.06;102263.81;5019502;28;20057;-36
2023/05/04 06:51:43;;;;;;;6.47;3.35;;;;;;;18.77;41.82;102267.34;5018470;28;20053;-35
2023/05/04 06:54:10;;;;;;;4.72;2.90;;;;;;;18.76;41.77;102266.50;5022271;28;20548;-35
2023/05/04 06:56:38;;;;;;;7.70;3.22;;;;;;;18.77;41.79;102256.59;5024370;28;20054;-37
2023/05/04 06:59:05;;;;;;;11.95;3.20;;;;;;;18.76;41.92;102263.81;5020368;28;20053;-35
2023/05/04 07:01:32;;;;;;;6.75;2.97;;;;;;;18.78;42.12;102259.19;5018333;28;20160;-35
2023/05/04 07:03:59;;;;;;;5.07;3.20;;;;;;;18.79;41.79;102258.22;5019093;28;20330;-35
2023/05/04 07:06:26;;;;;;;6.22;2.92;;;;;;;18.80;42.21;102253.69;5020983;28;20053;-35
2023/05/04 07:08:52;;;;;;;5.97;3.10;;;;;;;18.80;42.15;102251.84;5022134;28;20172;-36
2023/05/04 07:11:19;;;;;;;6.93;3.50;;;;;;;18.81;41.85;102245.50;5022378;28;20340;-36
2023/05/04 07:13:45;;;;;;;6.38;3.17;;;;;;;18.82;41.77;102249.06;5025120;28;20483;-35
2023/05/04 07:16:12;;;;;;;6.97;3.67;;;;;;;18.83;41.70;102243.53;5019446;28;20049;-36
2023/05/04 07:18:39;;;;;;;6.50;3.22;;;;;;;18.84;41.93;102239.88;5024375;28;20068;-36
2023/05/04 07:21:10;;;;;;;5.30;3.10;;;;;;;18.85;41.85;102238.03;5024696;28;20069;-36
2023/05/04 07:23:54;;;;;;;6.53;2.72;;;;;;;18.87;41.97;102239.63;5025452;28;20115;-35
2023/05/04 07:26:21;;;;;;;7.40;3.03;;;;;;;18.88;41.71;102240.47;5018486;28;20133;-37
2023/05/04 07:28:48;;;;;;;6.43;3.17;;;;;;;18.90;41.48;102241.22;5018926;28;20041;-35
2023/05/04 07:31:15;;;;;;;6.75;3.15;;;;;;;18.91;41.75;102238.41;5021827;28;20459;-36
2023/05/04 07:33:41;;;;;;;5.35;3.05;;;;;;;18.92;41.75;102233.88;5021822;28;20324;-36
2023/05/04 07:36:08;;;;;;;4.13;2.80;;;;;;;18.94;42.06;102231.94;5017536;28;20046;-36
2023/05/04 07:38:35;;;;;;;4.63;3.03;;;;;;;18.96;41.98;102238.03;5020912;28;20372;-36
2023/05/04 07:41:02;;;;;;;6.28;3.28;;;;;;;18.96;41.41;102233.50;5014544;28;20100;-36
2023/05/04 07:43:28;;;;;;;4.18;2.90;;;;;;;18.99;42.25;102229.72;5021176;28;20046;-36
2023/05/04 07:45:55;;;;;;;6.88;3.03;;;;;;;18.99;41.67;102225.19;5020150;28;20049;-36
2023/05/04 07:48:22;;;;;;;5.20;3.08;;;;;;;19.02;41.61;102234.00;5023653;28;20048;-35
2023/05/04 07:50:52;;;;;;;6.00;3.33;;;;;;;19.03;42.10;102219.56;5023982;28;20111;-37
2023/05/04 07:53:24;;;;;;;5.95;3.05;;;;;;;19.04;41.45;102215.91;5025545;28;20329;-36
2023/05/04 07:55:53;;;;;;;5.60;3.35;;;;;;;19.05;41.66;102218.44;5025976;28;20346;-36
2023/05/04 07:58:19;;;;;;;7.35;3.60;;;;;;;19.07;41.48;102219.19;5028899;28;20053;-36
2023/05/04 08:00:46;;;;;;;6.68;2.95;;;;;;;19.08;41.67;102207.44;5019677;28;20493;-36
2023/05/04 08:03:13;;;;;;;5.50;3.47;;;;;;;19.09;41.89;102206.47;5022343;28;20037;-35
2023/05/04 08:05:39;;;;;;;6.63;3.30;;;;;;;19.11;41.46;102206.34;5030382;28;20368;-34
2023/05/04 08:08:07;;;;;;;5.72;3.58;;;;;;;19.11;41.47;102193.75;5027154;28;20168;-34
2023/05/04 08:10:37;;;;;;;7.15;3.08;;;;;;;19.12;41.63;102192.78;5027007;28;20054;-35
2023/05/04 08:13:04;;;;;;;5.57;2.85;;;;;;;19.14;41.41;102188.13;5021086;28;20053;-34
2023/05/04 08:15:31;;;;;;;4.22;2.75;;;;;;;19.15;41.49;102173.72;5026206;28;20132;-35
2023/05/04 08:17:57;;;;;;;6.90;3.25;;;;;;;19.15;41.57;102179.09;5024625;28;20053;-34
2023/05/04 08:20:24;;;;;;;4.95;3.03;;;;;;;19.17;41.29;102173.56;5025565;28;20071;-35
2023/05/04 08:22:51;;;;;;;5.60;2.63;;;;;;;19.18;41.69;102167.25;5028180;28;20053;-34
2023/05/04 08:25:18;;;;;;;5.82;3.10;;;;;;;19.19;41.65;102174.31;5025142;28;20318;-35
2023/05/04 08:27:44;;;;;;;4.70;3.15;;;;;;;19.20;41.65;102168.78;5023409;28;20638;-34
2023/05/04 08:30:11;;;;;;;5.07;2.90;;;;;;;19.21;41.31;102166.97;5022106;28;20136;-35
2023/05/04 08:32:38;;;;;;;7.95;3.38;;;;;;;19.23;41.20;102167.69;5023371;28;20045;-35
2023/05/04 08:35:05;;;;;;;4.93;3.20;;;;;;;19.23;41.67;102171.22;5025869;28;20092;-35
2023/05/04 08:37:32;;;;;;;5.55;2.67;;;;;;;19.24;41.34;102164.88;5025158;28;20061;-35
2023/05/04 08:39:59;;;;;;;6.72;2.80;;;;;;;19.27;41.61;102170.97;5023715;28;20076;-35
2023/05/04 08:42:30;;;;;;;5.50;2.58;;;;;;;19.27;41.28;102168.28;5020776;28;20078;-35
2023/05/04 08:44:58;;;;;;;7.60;2.95;;;;;;;19.29;41.27;102166.31;5021881;28;20132;-35
2023/05/04 08:47:25;;;;;;;5.68;2.67;;;;;;;19.30;41.47;102168.88;5022089;28;20528;-35
2023/05/04 08:49:53;;;;;;;6.53;3.17;;;;;;;19.31;41.46;102167.91;5024738;28;20387;-34
2023/05/04 08:52:23;;;;;;;5.20;2.55;;;;;;;19.32;41.28;102163.38;5021780;28;20072;-35
2023/05/04 08:54:53;;;;;;;5.65;3.05;;;;;;;19.32;41.39;102148.09;5022592;28;20060;-35
2023/05/04 08:57:24;;;;;;;8.65;3.00;;;;;;;19.33;41.14;102151.63;5018737;28;20045;-35
2023/05/04 08:59:52;;;;;;;5.20;3.40;;;;;;;19.35;41.62;102150.53;5021479;28;20131;-35
2023/05/04 09:02:21;;;;;;;6.10;3.08;;;;;;;19.37;41.46;102139.63;5024782;28;20180;-34
2023/05/04 09:04:52;;;;;;;6.38;2.70;;;;;;;19.36;41.21;102138.78;5027771;28;20123;-35
2023/05/04 09:07:20;;;;;;;5.45;2.78;;;;;;;19.38;41.12;102127.91;5028501;28;20050;-37
2023/05/04 09:09:49;;;;;;;4.78;3.10;;;;;;;19.39;41.13;102133.16;5028361;28;20111;-36
2023/05/04 09:12:17;;;;;;;5.00;2.90;;;;;;;19.41;40.82;102130.31;5030561;28;20358;-37
2023/05/04 09:14:48;;;;;;;4.93;3.08;;;;;;;19.42;41.38;102127.50;5025024;28;20049;-34
2023/05/04 09:17:16;;;;;;;5.47;2.95;;;;;;;19.43;40.88;102123.00;5027034;28;20069;-36
2023/05/04 09:19:43;;;;;;;6.57;3.10;;;;;;;19.45;41.06;102123.69;5025296;28;20140;-35
2023/05/04 09:22:17;;;;;;;4.35;2.50;;;;;;;19.47;40.86;102121.75;5025924;28;20391;-34
2023/05/04 09:24:45;;;;;;;5.13;2.92;;;;;;;19.49;41.18;102119.75;5023715;28;20064;-35
2023/05/04 09:27:12;;;;;;;4.90;2.50;;;;;;;19.52;40.82;102113.28;5023733;28;20059;-34
2023/05/04 09:29:43;;;;;;;4.32;2.90;;;;;;;19.52;41.44;102122.19;5023342;28;20366;-35
2023/05/04 09:32:12;;;;;;;5.75;2.75;;;;;;;19.56;40.84;102118.25;5025290;28;20507;-35
2023/05/04 09:34:49;;;;;;;4.28;2.13;;;;;;;19.60;41.19;102116.16;5024411;28;20149;-35
2023/05/04 09:37:17;;;;;;;4.28;2.50;;;;;;;19.63;41.21;102113.22;5023519;28;20061;-37
2023/05/04 09:39:54;;;;;;;5.95;2.55;;;;;;;19.66;41.46;102110.28;5020640;28;20050;-37
2023/05/04 09:42:22;;;;;;;4.47;2.22;;;;;;;19.69;41.23;102112.69;5022740;28;20053;-34
2023/05/04 09:45:03;;;;;;;4.68;2.78;;;;;;;19.71;41.37;102098.13;5021522;28;20053;-36
2023/05/04 09:47:38;;;;;;;3.47;2.28;;;;;;;19.76;41.45;102099.56;5019448;28;20045;-34
2023/05/04 09:50:15;;;;;;;4.10;2.63;;;;;;;19.79;40.95;102091.22;5017773;28;20688;-35
2023/05/04 09:52:46;;;;;;;3.85;2.22;;;;;;;19.83;41.58;102089.97;5020301;28;20049;-37
2023/05/04 09:55:15;;;;;;;3.58;2.55;;;;;;;19.87;41.54;102088.72;5019312;28;20132;-37
2023/05/04 09:57:43;;;;;;;3.38;2.03;;;;;;;19.90;41.16;102088.41;5020981;28;20557;-35
2023/05/04 10:00:17;;;;;;;3.25;2.15;;;;;;;19.94;40.90;102087.19;5022071;28;20061;-35
2023/05/04 10:02:46;;;;;;;3.88;2.22;;;;;;;19.97;40.75;102082.34;5026729;28;20045;-36
2023/05/04 10:05:16;;;;;;;3.58;2.13;;;;;;;20.01;41.60;102082.94;5021112;28;20046;-36
2023/05/04 10:07:43;;;;;;;3.90;2.10;;;;;;;20.04;41.21;102069.22;5022672;28;20045;-36
2023/05/04 10:10:14;;;;;;;6.13;2.33;;;;;;;20.06;41.13;102072.63;5023454;28;20085;-35
2023/05/04 10:12:40;;;;;;;4.53;2.30;;;;;;;20.09;41.17;102066.97;5022961;28;20045;-36
2023/05/04 10:15:09;;;;;;;4.88;2.55;;;;;;;20.13;41.44;102062.16;5019201;28;20085;-35
2023/05/04 10:18:01;;;;;;;3.25;2.22;;;;;;;20.15;40.95;102060.19;5020470;28;20077;-35
2023/05/04 10:21:06;;;;;;;3.85;2.05;;;;;;;20.18;40.65;102052.69;5020206;28;20484;-36
2023/05/04 10:23:59;;;;;;;3.85;2.40;;;;;;;20.21;41.38;102044.31;5024973;28;20123;-35
2023/05/04 10:26:50;;;;;;;6.05;2.33;;;;;;;20.24;41.02;102045.91;5021658;28;20489;-35
2023/05/04 10:29:25;;;;;;;4.32;2.33;;;;;;;20.28;41.15;102041.09;5018224;28;20128;-35
2023/05/04 10:31:52;;;;;;;6.47;2.20;;;;;;;20.31;41.35;102038.97;5023929;28;20045;-38
2023/05/04 10:34:24;;;;;;;7.45;2.00;;;;;;;20.33;40.99;102025.34;5020059;28;20049;-35
2023/05/04 10:36:51;;;;;;;3.78;1.90;;;;;;;20.36;41.03;102017.00;5024167;28;20128;-35
2023/05/04 10:39:23;;;;;;;4.32;2.22;;;;;;;20.38;40.84;102015.88;5021602;28;20046;-35
2023/05/04 10:42:03;;;;;;;4.65;2.10;;;;;;;20.39;40.38;102017.56;5018582;28;20426;-35
2023/05/04 10:44:32;;;;;;;6.72;2.05;;;;;;;20.43;40.83;102012.75;5021385;28;20055;-36
2023/05/04 10:47:07;;;;;;;5.63;2.47;;;;;;;20.44;40.20;102006.38;5025945;28;20059;-36
2023/05/04 10:49:34;;;;;;;5.05;2.25;;;;;;;20.46;40.40;102001.69;5025969;28;20073;-36
2023/05/04 10:52:12;;;;;;;3.35;1.90;;;;;;;20.49;39.99;101985.28;5027259;28;20053;-35
2023/05/04 10:54:40;;;;;;;3.58;1.98;;;;;;;20.51;40.01;101987.84;5026391;28;20144;-37
2023/05/04 10:57:16;;;;;;;5.10;2.13;;;;;;;20.53;40.51;101984.00;5026672;28;20063;-36
2023/05/04 10:59:56;;;;;;;2.95;1.92;;;;;;;20.54;39.90;101985.69;5025027;28;20064;-35
2023/05/04 11:02:26;;;;;;;6.63;2.58;;;;;;;20.57;39.86;101977.34;5020921;28;20045;-35
2023/05/04 11:05:19;;;;;;;3.55;2.00;;;;;;;20.60;40.24;101968.97;5024672;28;20045;-36
2023/05/04 11:07:49;;;;;;;3.88;1.95;;;;;;;20.62;40.20;101956.22;5023507;28;20060;-35
2023/05/04 11:10:24;;;;;;;4.40;2.15;;;;;;;20.64;40.18;101958.78;5021965;28;20064;-36
2023/05/04 11:12:51;;;;;;;3.17;2.00;;;;;;;20.65;40.01;101950.53;5022007;28;20132;-36
2023/05/04 11:15:18;;;;;;;4.45;2.00;;;;;;;20.68;40.28;101946.72;5022214;28;20132;-35
2023/05/04 11:17:51;;;;;;;4.97;1.88;;;;;;;20.69;39.83;101943.88;5019715;28;20459;-36
2023/05/04 11:20:21;;;;;;;;;;;;;;;20.70;40.46;101933.94;5021495;28;20100;-35
2023/05/04 11:22:49;;;;;;;4.45;2.08;;;;;;;20.76;40.15;101929.81;5027758;28;19964;-35
2023/05/04 11:25:16;;;;;;;2.28;1.73;;;;;;;20.77;39.98;101923.44;5027431;28;20371;-36
2023/05/04 11:27:43;;;;;;;3.53;1.80;;;;;;;20.78;40.26;101919.75;5026118;28;20080;-36
2023/05/04 11:30:10;;;;;;;3.28;2.13;;;;;;;20.79;40.02;101922.31;5027429;28;20081;-36